sensor_id;sensor_type;location;lat;lon;timestamp;P1;durP1;ratioP1;P2;durP2;ratioP2
23800;SDS011;12081;48.614;10.226;2023-07-13T00:41:08;13.23;;;6.00;;
23800;SDS011;12081;48.614;10.226;2023-07-13T00:43:52;18.07;;;6.10;;
23800;SDS011;12081;48.614;10.226;2023-07-13T05:30:50;6.23;;;2.10;;
23800;SDS011;12081;48.614;10.226;2023-07-13T05:33:35;6.27;;;1.80;;
23800;SDS011;12081;48.614;10.226;2023-07-13T05:36:19;4.27;;;1.97;;
23800;SDS011;12081;48.614;10.226;2023-07-13T05:39:04;5.03;;;1.73;;
23800;SDS011;12081;48.614;10.226;2023-07-13T05:41:48;3.80;;;2.10;;
23800;SDS011;12081;48.614;10.226;2023-07-13T05:44:32;3.60;;;1.90;;
23800;SDS011;12081;48.614;10.226;2023-07-13T05:47:16;3.87;;;2.00;;
23800;SDS011;12081;48.614;10.226;2023-07-13T05:50:01;4.83;;;1.80;;
23800;SDS011;12081;48.614;10.226;2023-07-13T05:52:45;4.27;;;2.00;;
23800;SDS011;12081;48.614;10.226;2023-07-13T05:55:29;4.03;;;1.93;;
23800;SDS011;12081;48.614;10.226;2023-07-13T05:58:13;5.47;;;2.07;;
23800;SDS011;12081;48.614;10.226;2023-07-13T06:00:59;5.70;;;1.90;;
23800;SDS011;12081;48.614;10.226;2023-07-13T06:03:52;3.13;;;1.60;;
23800;SDS011;12081;48.614;10.226;2023-07-13T06:06:36;2.43;;;1.77;;
23800;SDS011;12081;48.614;10.226;2023-07-13T06:09:22;3.90;;;2.00;;
23800;SDS011;12081;48.614;10.226;2023-07-13T06:12:06;3.43;;;1.60;;
23800;SDS011;12081;48.614;10.226;2023-07-13T06:14:51;2.60;;;1.77;;
23800;SDS011;12081;48.614;10.226;2023-07-13T06:17:35;4.33;;;1.47;;
23800;SDS011;12081;48.614;10.226;2023-07-13T06:20:20;3.53;;;1.53;;
23800;SDS011;12081;48.614;10.226;2023-07-13T06:23:04;5.40;;;1.60;;
23800;SDS011;12081;48.614;10.226;2023-07-13T06:25:49;3.40;;;1.80;;
23800;SDS011;12081;48.614;10.226;2023-07-13T06:28:34;3.50;;;1.60;;
23800;SDS011;12081;48.614;10.226;2023-07-13T06:31:19;5.37;;;1.60;;
23800;SDS011;12081;48.614;10.226;2023-07-13T06:34:03;8.83;;;1.80;;
23800;SDS011;12081;48.614;10.226;2023-07-13T06:36:48;3.87;;;1.60;;
23800;SDS011;12081;48.614;10.226;2023-07-13T06:39:33;3.30;;;1.70;;
23800;SDS011;12081;48.614;10.226;2023-07-13T06:42:18;7.90;;;1.67;;
23800;SDS011;12081;48.614;10.226;2023-07-13T06:45:02;6.77;;;2.00;;
23800;SDS011;12081;48.614;10.226;2023-07-13T06:47:47;3.60;;;1.60;;
23800;SDS011;12081;48.614;10.226;2023-07-13T06:50:33;4.57;;;1.50;;
23800;SDS011;12081;48.614;10.226;2023-07-13T06:53:18;3.60;;;1.90;;
23800;SDS011;12081;48.614;10.226;2023-07-13T06:56:03;3.17;;;1.60;;
23800;SDS011;12081;48.614;10.226;2023-07-13T06:58:48;2.67;;;1.53;;
23800;SDS011;12081;48.614;10.226;2023-07-13T07:01:33;2.77;;;1.27;;
23800;SDS011;12081;48.614;10.226;2023-07-13T07:04:18;5.27;;;1.90;;
23800;SDS011;12081;48.614;10.226;2023-07-13T07:07:02;5.37;;;1.53;;
23800;SDS011;12081;48.614;10.226;2023-07-13T07:09:47;4.60;;;1.90;;
23800;SDS011;12081;48.614;10.226;2023-07-13T07:12:32;4.00;;;1.50;;
23800;SDS011;12081;48.614;10.226;2023-07-13T07:15:17;3.27;;;1.60;;
23800;SDS011;12081;48.614;10.226;2023-07-13T07:18:01;4.33;;;1.30;;
23800;SDS011;12081;48.614;10.226;2023-07-13T07:20:46;3.00;;;1.20;;
23800;SDS011;12081;48.614;10.226;2023-07-13T07:23:33;5.43;;;1.50;;
23800;SDS011;12081;48.614;10.226;2023-07-13T07:26:17;8.97;;;1.10;;
23800;SDS011;12081;48.614;10.226;2023-07-13T07:29:02;2.73;;;1.30;;
23800;SDS011;12081;48.614;10.226;2023-07-13T07:31:47;3.55;;;1.63;;
23800;SDS011;12081;48.614;10.226;2023-07-13T07:34:31;3.03;;;1.40;;
23800;SDS011;12081;48.614;10.226;2023-07-13T07:37:16;3.15;;;1.50;;
23800;SDS011;12081;48.614;10.226;2023-07-13T07:40:00;2.63;;;1.13;;
23800;SDS011;12081;48.614;10.226;2023-07-13T07:42:46;2.72;;;1.52;;
23800;SDS011;12081;48.614;10.226;2023-07-13T07:45:30;2.88;;;1.30;;
23800;SDS011;12081;48.614;10.226;2023-07-13T07:48:15;3.42;;;1.30;;
23800;SDS011;12081;48.614;10.226;2023-07-13T07:50:59;2.17;;;1.15;;
23800;SDS011;12081;48.614;10.226;2023-07-13T07:53:44;3.00;;;1.30;;
23800;SDS011;12081;48.614;10.226;2023-07-13T07:56:29;4.22;;;1.20;;
23800;SDS011;12081;48.614;10.226;2023-07-13T07:59:13;4.70;;;1.10;;
23800;SDS011;12081;48.614;10.226;2023-07-13T08:01:58;2.45;;;1.30;;
23800;SDS011;12081;48.614;10.226;2023-07-13T08:04:42;4.85;;;1.08;;
23800;SDS011;12081;48.614;10.226;2023-07-13T08:07:27;2.17;;;0.93;;
23800;SDS011;12081;48.614;10.226;2023-07-13T08:10:13;2.75;;;0.88;;
23800;SDS011;12081;48.614;10.226;2023-07-13T08:12:58;3.08;;;1.00;;
23800;SDS011;12081;48.614;10.226;2023-07-13T08:15:42;2.22;;;1.00;;
23800;SDS011;12081;48.614;10.226;2023-07-13T08:18:27;2.42;;;1.05;;
23800;SDS011;12081;48.614;10.226;2023-07-13T08:21:11;2.83;;;0.90;;
23800;SDS011;12081;48.614;10.226;2023-07-13T08:23:56;1.95;;;1.15;;
23800;SDS011;12081;48.614;10.226;2023-07-13T08:26:41;2.78;;;1.10;;
23800;SDS011;12081;48.614;10.226;2023-07-13T08:29:25;2.55;;;1.15;;
23800;SDS011;12081;48.614;10.226;2023-07-13T08:32:10;3.85;;;1.02;;
23800;SDS011;12081;48.614;10.226;2023-07-13T08:34:54;2.67;;;1.10;;
23800;SDS011;12081;48.614;10.226;2023-07-13T08:37:39;3.50;;;1.10;;
23800;SDS011;12081;48.614;10.226;2023-07-13T08:40:25;3.47;;;1.05;;
23800;SDS011;12081;48.614;10.226;2023-07-13T08:43:18;1.75;;;1.00;;
23800;SDS011;12081;48.614;10.226;2023-07-13T08:49:47;2.33;;;0.90;;
23800;SDS011;12081;48.614;10.226;2023-07-13T08:56:16;3.15;;;1.00;;
23800;SDS011;12081;48.614;10.226;2023-07-13T09:02:56;4.47;;;1.00;;
23800;SDS011;12081;48.614;10.226;2023-07-13T09:05:44;1.90;;;0.90;;
23800;SDS011;12081;48.614;10.226;2023-07-13T09:08:42;1.52;;;0.82;;
23800;SDS011;12081;48.614;10.226;2023-07-13T09:11:50;2.55;;;0.90;;
23800;SDS011;12081;48.614;10.226;2023-07-13T09:14:47;2.15;;;1.00;;
23800;SDS011;12081;48.614;10.226;2023-07-13T09:17:35;4.30;;;1.10;;
23800;SDS011;12081;48.614;10.226;2023-07-13T09:20:54;4.30;;;1.00;;
23800;SDS011;12081;48.614;10.226;2023-07-13T09:23:42;1.95;;;1.05;;
23800;SDS011;12081;48.614;10.226;2023-07-13T09:26:27;2.05;;;0.80;;
23800;SDS011;12081;48.614;10.226;2023-07-13T09:29:29;2.67;;;1.00;;
23800;SDS011;12081;48.614;10.226;2023-07-13T09:32:21;1.50;;;0.68;;
23800;SDS011;12081;48.614;10.226;2023-07-13T09:35:12;1.70;;;0.98;;
23800;SDS011;12081;48.614;10.226;2023-07-13T09:38:17;2.03;;;0.90;;
23800;SDS011;12081;48.614;10.226;2023-07-13T09:44:28;1.77;;;0.95;;
23800;SDS011;12081;48.614;10.226;2023-07-13T09:47:22;1.92;;;0.98;;
23800;SDS011;12081;48.614;10.226;2023-07-13T09:50:09;1.92;;;0.75;;
23800;SDS011;12081;48.614;10.226;2023-07-13T09:52:58;1.58;;;0.90;;
23800;SDS011;12081;48.614;10.226;2023-07-13T09:55:46;3.20;;;1.30;;
23800;SDS011;12081;48.614;10.226;2023-07-13T09:58:32;1.08;;;0.80;;
23800;SDS011;12081;48.614;10.226;2023-07-13T10:01:38;1.80;;;0.90;;
23800;SDS011;12081;48.614;10.226;2023-07-13T10:04:30;3.92;;;1.10;;
23800;SDS011;12081;48.614;10.226;2023-07-13T10:07:16;3.58;;;0.88;;
23800;SDS011;12081;48.614;10.226;2023-07-13T10:10:02;2.95;;;0.80;;
23800;SDS011;12081;48.614;10.226;2023-07-13T10:12:46;3.05;;;1.10;;
23800;SDS011;12081;48.614;10.226;2023-07-13T10:15:31;2.05;;;1.02;;
23800;SDS011;12081;48.614;10.226;2023-07-13T10:18:16;2.90;;;1.15;;
23800;SDS011;12081;48.614;10.226;2023-07-13T10:21:38;2.08;;;1.02;;
23800;SDS011;12081;48.614;10.226;2023-07-13T10:27:18;6.32;;;1.23;;
23800;SDS011;12081;48.614;10.226;2023-07-13T10:33:02;2.35;;;1.13;;
23800;SDS011;12081;48.614;10.226;2023-07-13T10:35:54;3.08;;;1.33;;
23800;SDS011;12081;48.614;10.226;2023-07-13T10:38:46;1.85;;;0.95;;
23800;SDS011;12081;48.614;10.226;2023-07-13T10:41:34;3.53;;;1.25;;
23800;SDS011;12081;48.614;10.226;2023-07-13T10:44:24;2.60;;;1.08;;
23800;SDS011;12081;48.614;10.226;2023-07-13T10:47:13;3.03;;;1.05;;
23800;SDS011;12081;48.614;10.226;2023-07-13T10:50:01;3.08;;;1.17;;
23800;SDS011;12081;48.614;10.226;2023-07-13T10:52:52;2.95;;;1.23;;
23800;SDS011;12081;48.614;10.226;2023-07-13T10:55:40;3.15;;;1.05;;
23800;SDS011;12081;48.614;10.226;2023-07-13T10:58:38;2.38;;;0.88;;
23800;SDS011;12081;48.614;10.226;2023-07-13T11:01:24;4.15;;;1.30;;
23800;SDS011;12081;48.614;10.226;2023-07-13T11:04:11;2.97;;;1.30;;
23800;SDS011;12081;48.614;10.226;2023-07-13T11:07:09;2.78;;;1.25;;
23800;SDS011;12081;48.614;10.226;2023-07-13T11:10:05;8.93;;;1.25;;
23800;SDS011;12081;48.614;10.226;2023-07-13T11:13:35;2.13;;;1.15;;
23800;SDS011;12081;48.614;10.226;2023-07-13T11:16:36;1.58;;;1.00;;
23800;SDS011;12081;48.614;10.226;2023-07-13T11:19:37;2.38;;;1.25;;
23800;SDS011;12081;48.614;10.226;2023-07-13T11:22:24;3.40;;;1.25;;
23800;SDS011;12081;48.614;10.226;2023-07-13T11:25:26;3.83;;;1.35;;
23800;SDS011;12081;48.614;10.226;2023-07-13T11:28:25;6.55;;;1.58;;
23800;SDS011;12081;48.614;10.226;2023-07-13T11:31:14;2.60;;;1.20;;
23800;SDS011;12081;48.614;10.226;2023-07-13T11:34:00;3.15;;;1.10;;
23800;SDS011;12081;48.614;10.226;2023-07-13T11:36:45;2.25;;;1.10;;
23800;SDS011;12081;48.614;10.226;2023-07-13T11:42:16;3.25;;;1.15;;
23800;SDS011;12081;48.614;10.226;2023-07-13T11:45:14;4.03;;;1.17;;
23800;SDS011;12081;48.614;10.226;2023-07-13T11:48:17;3.70;;;1.33;;
23800;SDS011;12081;48.614;10.226;2023-07-13T11:51:07;5.85;;;0.98;;
23800;SDS011;12081;48.614;10.226;2023-07-13T11:54:26;2.60;;;1.02;;
23800;SDS011;12081;48.614;10.226;2023-07-13T11:57:23;4.32;;;1.10;;
23800;SDS011;12081;48.614;10.226;2023-07-13T12:00:15;2.05;;;0.93;;
23800;SDS011;12081;48.614;10.226;2023-07-13T12:03:02;2.40;;;0.88;;
23800;SDS011;12081;48.614;10.226;2023-07-13T12:05:55;4.00;;;1.20;;
23800;SDS011;12081;48.614;10.226;2023-07-13T12:08:41;2.58;;;1.02;;
23800;SDS011;12081;48.614;10.226;2023-07-13T12:11:26;3.13;;;0.77;;
23800;SDS011;12081;48.614;10.226;2023-07-13T12:14:14;5.50;;;1.27;;
23800;SDS011;12081;48.614;10.226;2023-07-13T12:16:59;3.20;;;1.20;;
23800;SDS011;12081;48.614;10.226;2023-07-13T12:19:44;2.45;;;1.30;;
23800;SDS011;12081;48.614;10.226;2023-07-13T12:22:29;3.85;;;1.30;;
23800;SDS011;12081;48.614;10.226;2023-07-13T12:25:14;1.83;;;1.10;;
23800;SDS011;12081;48.614;10.226;2023-07-13T12:28:01;4.55;;;1.70;;
23800;SDS011;12081;48.614;10.226;2023-07-13T12:34:16;1.50;;;1.13;;
23800;SDS011;12081;48.614;10.226;2023-07-13T12:37:02;2.75;;;1.17;;
23800;SDS011;12081;48.614;10.226;2023-07-13T12:39:53;4.47;;;1.13;;
23800;SDS011;12081;48.614;10.226;2023-07-13T12:42:37;3.60;;;1.15;;
23800;SDS011;12081;48.614;10.226;2023-07-13T12:45:24;2.50;;;1.10;;
23800;SDS011;12081;48.614;10.226;2023-07-13T12:48:15;1.58;;;0.93;;
23800;SDS011;12081;48.614;10.226;2023-07-13T12:51:00;1.85;;;1.00;;
23800;SDS011;12081;48.614;10.226;2023-07-13T12:53:49;3.25;;;0.85;;
23800;SDS011;12081;48.614;10.226;2023-07-13T12:56:40;5.03;;;1.13;;
23800;SDS011;12081;48.614;10.226;2023-07-13T12:59:26;1.63;;;1.00;;
23800;SDS011;12081;48.614;10.226;2023-07-13T13:02:26;3.75;;;1.00;;
23800;SDS011;12081;48.614;10.226;2023-07-13T13:05:14;1.80;;;1.30;;
23800;SDS011;12081;48.614;10.226;2023-07-13T13:07:59;2.90;;;1.10;;
23800;SDS011;12081;48.614;10.226;2023-07-13T13:10:43;1.10;;;0.90;;
23800;SDS011;12081;48.614;10.226;2023-07-13T13:13:29;1.42;;;0.98;;
23800;SDS011;12081;48.614;10.226;2023-07-13T13:16:26;2.45;;;1.08;;
23800;SDS011;12081;48.614;10.226;2023-07-13T13:19:16;1.73;;;1.20;;
23800;SDS011;12081;48.614;10.226;2023-07-13T13:22:05;3.53;;;1.15;;
23800;SDS011;12081;48.614;10.226;2023-07-13T13:24:51;5.95;;;1.30;;
23800;SDS011;12081;48.614;10.226;2023-07-13T13:27:36;3.88;;;1.30;;
23800;SDS011;12081;48.614;10.226;2023-07-13T13:30:20;2.05;;;1.00;;
23800;SDS011;12081;48.614;10.226;2023-07-13T13:33:07;2.92;;;1.23;;
23800;SDS011;12081;48.614;10.226;2023-07-13T13:35:55;3.05;;;0.90;;
23800;SDS011;12081;48.614;10.226;2023-07-13T13:38:41;2.67;;;1.25;;
23800;SDS011;12081;48.614;10.226;2023-07-13T13:41:25;1.83;;;1.20;;
23800;SDS011;12081;48.614;10.226;2023-07-13T13:44:10;2.38;;;1.00;;
23800;SDS011;12081;48.614;10.226;2023-07-13T13:46:55;3.78;;;1.02;;
23800;SDS011;12081;48.614;10.226;2023-07-13T13:49:40;2.40;;;1.17;;
23800;SDS011;12081;48.614;10.226;2023-07-13T13:52:25;3.58;;;1.15;;
23800;SDS011;12081;48.614;10.226;2023-07-13T13:55:17;1.77;;;0.93;;
23800;SDS011;12081;48.614;10.226;2023-07-13T13:58:04;3.75;;;1.20;;
23800;SDS011;12081;48.614;10.226;2023-07-13T14:00:48;2.88;;;1.38;;
23800;SDS011;12081;48.614;10.226;2023-07-13T14:03:34;4.13;;;1.35;;
23800;SDS011;12081;48.614;10.226;2023-07-13T14:06:19;2.28;;;1.20;;
23800;SDS011;12081;48.614;10.226;2023-07-13T14:09:04;1.58;;;1.05;;
23800;SDS011;12081;48.614;10.226;2023-07-13T14:11:52;3.50;;;1.20;;
23800;SDS011;12081;48.614;10.226;2023-07-13T14:14:37;4.15;;;1.67;;
23800;SDS011;12081;48.614;10.226;2023-07-13T14:17:23;3.15;;;1.40;;
23800;SDS011;12081;48.614;10.226;2023-07-13T14:20:11;5.32;;;1.30;;
23800;SDS011;12081;48.614;10.226;2023-07-13T14:22:56;2.45;;;1.02;;
23800;SDS011;12081;48.614;10.226;2023-07-13T14:25:41;2.60;;;1.15;;
23800;SDS011;12081;48.614;10.226;2023-07-13T14:28:26;1.92;;;1.05;;
23800;SDS011;12081;48.614;10.226;2023-07-13T14:31:12;3.53;;;1.08;;
23800;SDS011;12081;48.614;10.226;2023-07-13T14:33:59;2.85;;;1.10;;
23800;SDS011;12081;48.614;10.226;2023-07-13T14:36:47;2.17;;;1.30;;
23800;SDS011;12081;48.614;10.226;2023-07-13T14:39:33;2.60;;;1.05;;
23800;SDS011;12081;48.614;10.226;2023-07-13T14:42:17;3.97;;;1.10;;
23800;SDS011;12081;48.614;10.226;2023-07-13T14:48:43;2.63;;;1.10;;
23800;SDS011;12081;48.614;10.226;2023-07-13T14:51:29;2.95;;;1.10;;
23800;SDS011;12081;48.614;10.226;2023-07-13T14:54:15;4.72;;;1.27;;
23800;SDS011;12081;48.614;10.226;2023-07-13T14:56:59;1.50;;;0.95;;
23800;SDS011;12081;48.614;10.226;2023-07-13T14:59:45;3.78;;;0.98;;
23800;SDS011;12081;48.614;10.226;2023-07-13T15:02:31;4.70;;;1.25;;
23800;SDS011;12081;48.614;10.226;2023-07-13T15:05:22;2.85;;;1.00;;
23800;SDS011;12081;48.614;10.226;2023-07-13T15:08:08;1.70;;;1.00;;
23800;SDS011;12081;48.614;10.226;2023-07-13T15:10:54;2.30;;;1.20;;
23800;SDS011;12081;48.614;10.226;2023-07-13T15:13:43;2.35;;;1.20;;
23800;SDS011;12081;48.614;10.226;2023-07-13T15:16:32;2.38;;;1.10;;
23800;SDS011;12081;48.614;10.226;2023-07-13T15:19:18;2.92;;;1.10;;
23800;SDS011;12081;48.614;10.226;2023-07-13T15:22:04;3.00;;;1.10;;
23800;SDS011;12081;48.614;10.226;2023-07-13T15:24:49;3.58;;;1.10;;
23800;SDS011;12081;48.614;10.226;2023-07-13T15:27:34;2.92;;;1.10;;
23800;SDS011;12081;48.614;10.226;2023-07-13T15:30:21;3.80;;;1.20;;
23800;SDS011;12081;48.614;10.226;2023-07-13T15:33:17;3.13;;;1.15;;
23800;SDS011;12081;48.614;10.226;2023-07-13T15:36:09;3.63;;;1.27;;
23800;SDS011;12081;48.614;10.226;2023-07-13T15:38:54;2.72;;;1.30;;
23800;SDS011;12081;48.614;10.226;2023-07-13T15:41:39;2.70;;;1.27;;
23800;SDS011;12081;48.614;10.226;2023-07-13T15:44:28;3.72;;;1.27;;
23800;SDS011;12081;48.614;10.226;2023-07-13T15:47:14;4.35;;;1.33;;
23800;SDS011;12081;48.614;10.226;2023-07-13T15:49:59;3.17;;;1.27;;
23800;SDS011;12081;48.614;10.226;2023-07-13T15:52:45;2.20;;;1.20;;
23800;SDS011;12081;48.614;10.226;2023-07-13T15:55:32;2.40;;;1.33;;
23800;SDS011;12081;48.614;10.226;2023-07-13T15:58:17;3.25;;;1.20;;
23800;SDS011;12081;48.614;10.226;2023-07-13T16:01:02;2.00;;;1.17;;
23800;SDS011;12081;48.614;10.226;2023-07-13T16:03:46;3.97;;;1.38;;
23800;SDS011;12081;48.614;10.226;2023-07-13T16:06:33;3.80;;;1.08;;
23800;SDS011;12081;48.614;10.226;2023-07-13T16:09:20;2.67;;;1.20;;
23800;SDS011;12081;48.614;10.226;2023-07-13T16:12:11;2.42;;;1.27;;
23800;SDS011;12081;48.614;10.226;2023-07-13T16:14:59;2.67;;;1.35;;
23800;SDS011;12081;48.614;10.226;2023-07-13T16:17:47;2.97;;;1.17;;
23800;SDS011;12081;48.614;10.226;2023-07-13T16:20:32;3.83;;;1.17;;
23800;SDS011;12081;48.614;10.226;2023-07-13T16:23:17;2.60;;;1.17;;
23800;SDS011;12081;48.614;10.226;2023-07-13T16:26:02;4.13;;;1.20;;
23800;SDS011;12081;48.614;10.226;2023-07-13T16:28:47;3.08;;;1.60;;
23800;SDS011;12081;48.614;10.226;2023-07-13T16:31:32;4.28;;;1.00;;
23800;SDS011;12081;48.614;10.226;2023-07-13T16:34:16;4.95;;;1.20;;
23800;SDS011;12081;48.614;10.226;2023-07-13T16:37:02;2.15;;;1.00;;
23800;SDS011;12081;48.614;10.226;2023-07-13T16:39:55;3.42;;;1.30;;
23800;SDS011;12081;48.614;10.226;2023-07-13T16:42:41;4.22;;;1.40;;
23800;SDS011;12081;48.614;10.226;2023-07-13T16:45:28;2.65;;;1.10;;
23800;SDS011;12081;48.614;10.226;2023-07-13T16:48:18;4.38;;;1.20;;
23800;SDS011;12081;48.614;10.226;2023-07-13T16:51:05;2.60;;;1.13;;
23800;SDS011;12081;48.614;10.226;2023-07-13T16:53:50;3.53;;;1.20;;
23800;SDS011;12081;48.614;10.226;2023-07-13T16:56:34;4.15;;;1.30;;
23800;SDS011;12081;48.614;10.226;2023-07-13T16:59:19;2.58;;;1.50;;
23800;SDS011;12081;48.614;10.226;2023-07-13T17:02:33;1.17;;;1.00;;
23800;SDS011;12081;48.614;10.226;2023-07-13T17:05:19;3.33;;;1.08;;
23800;SDS011;12081;48.614;10.226;2023-07-13T17:08:11;5.72;;;1.45;;
23800;SDS011;12081;48.614;10.226;2023-07-13T17:10:59;3.90;;;1.38;;
23800;SDS011;12081;48.614;10.226;2023-07-13T17:13:45;2.92;;;1.30;;
23800;SDS011;12081;48.614;10.226;2023-07-13T17:16:30;3.55;;;1.50;;
23800;SDS011;12081;48.614;10.226;2023-07-13T17:19:15;2.67;;;1.27;;
23800;SDS011;12081;48.614;10.226;2023-07-13T17:22:01;2.88;;;1.40;;
23800;SDS011;12081;48.614;10.226;2023-07-13T17:24:49;4.68;;;1.17;;
23800;SDS011;12081;48.614;10.226;2023-07-13T17:27:33;3.92;;;1.25;;
23800;SDS011;12081;48.614;10.226;2023-07-13T17:30:19;3.17;;;1.20;;
23800;SDS011;12081;48.614;10.226;2023-07-13T17:33:05;8.02;;;1.50;;
23800;SDS011;12081;48.614;10.226;2023-07-13T17:35:52;5.13;;;1.17;;
23800;SDS011;12081;48.614;10.226;2023-07-13T17:38:37;2.75;;;1.00;;
23800;SDS011;12081;48.614;10.226;2023-07-13T17:41:26;1.88;;;1.40;;
23800;SDS011;12081;48.614;10.226;2023-07-13T17:44:14;2.85;;;1.20;;
23800;SDS011;12081;48.614;10.226;2023-07-13T17:47:00;3.95;;;1.48;;
23800;SDS011;12081;48.614;10.226;2023-07-13T17:49:48;2.40;;;1.23;;
23800;SDS011;12081;48.614;10.226;2023-07-13T17:52:33;2.58;;;1.20;;
23800;SDS011;12081;48.614;10.226;2023-07-13T17:55:18;4.57;;;1.50;;
23800;SDS011;12081;48.614;10.226;2023-07-13T17:58:05;2.38;;;1.23;;
23800;SDS011;12081;48.614;10.226;2023-07-13T18:00:50;3.05;;;1.40;;
23800;SDS011;12081;48.614;10.226;2023-07-13T18:03:35;2.22;;;1.35;;
23800;SDS011;12081;48.614;10.226;2023-07-13T18:06:28;3.33;;;1.30;;
23800;SDS011;12081;48.614;10.226;2023-07-13T18:09:19;2.22;;;1.15;;
23800;SDS011;12081;48.614;10.226;2023-07-13T18:12:07;6.25;;;1.30;;
23800;SDS011;12081;48.614;10.226;2023-07-13T18:14:53;3.95;;;1.20;;
23800;SDS011;12081;48.614;10.226;2023-07-13T18:17:38;2.83;;;1.00;;
23800;SDS011;12081;48.614;10.226;2023-07-13T18:20:22;1.60;;;1.05;;
23800;SDS011;12081;48.614;10.226;2023-07-13T18:23:07;4.13;;;1.42;;
23800;SDS011;12081;48.614;10.226;2023-07-13T18:26:01;2.78;;;1.30;;
23800;SDS011;12081;48.614;10.226;2023-07-13T18:28:46;2.30;;;1.20;;
23800;SDS011;12081;48.614;10.226;2023-07-13T18:31:33;5.60;;;1.45;;
23800;SDS011;12081;48.614;10.226;2023-07-13T18:34:19;2.72;;;1.10;;
23800;SDS011;12081;48.614;10.226;2023-07-13T18:37:15;3.03;;;1.48;;
23800;SDS011;12081;48.614;10.226;2023-07-13T18:40:02;1.50;;;1.23;;
23800;SDS011;12081;48.614;10.226;2023-07-13T18:42:52;1.92;;;1.10;;
23800;SDS011;12081;48.614;10.226;2023-07-13T18:45:38;2.38;;;1.15;;
23800;SDS011;12081;48.614;10.226;2023-07-13T18:48:23;6.43;;;1.40;;
23800;SDS011;12081;48.614;10.226;2023-07-13T18:51:10;2.75;;;1.33;;
23800;SDS011;12081;48.614;10.226;2023-07-13T18:53:55;4.18;;;1.40;;
23800;SDS011;12081;48.614;10.226;2023-07-13T18:56:39;6.40;;;1.38;;
23800;SDS011;12081;48.614;10.226;2023-07-13T18:59:24;3.30;;;1.30;;
23800;SDS011;12081;48.614;10.226;2023-07-13T19:02:12;2.00;;;1.15;;
23800;SDS011;12081;48.614;10.226;2023-07-13T19:04:57;4.75;;;1.52;;
23800;SDS011;12081;48.614;10.226;2023-07-13T19:07:45;3.63;;;1.70;;
23800;SDS011;12081;48.614;10.226;2023-07-13T19:10:30;2.15;;;1.17;;
23800;SDS011;12081;48.614;10.226;2023-07-13T19:13:16;1.85;;;1.20;;
23800;SDS011;12081;48.614;10.226;2023-07-13T19:16:07;2.22;;;1.30;;
23800;SDS011;12081;48.614;10.226;2023-07-13T19:18:55;2.50;;;1.40;;
23800;SDS011;12081;48.614;10.226;2023-07-13T19:21:42;4.10;;;1.20;;
23800;SDS011;12081;48.614;10.226;2023-07-13T19:24:29;4.75;;;1.20;;
23800;SDS011;12081;48.614;10.226;2023-07-13T19:27:15;2.90;;;1.60;;
23800;SDS011;12081;48.614;10.226;2023-07-13T19:29:59;4.00;;;1.38;;
23800;SDS011;12081;48.614;10.226;2023-07-13T19:32:44;3.42;;;1.58;;
23800;SDS011;12081;48.614;10.226;2023-07-13T19:35:30;4.68;;;1.58;;
23800;SDS011;12081;48.614;10.226;2023-07-13T19:38:16;5.20;;;1.20;;
23800;SDS011;12081;48.614;10.226;2023-07-13T19:41:04;3.92;;;1.33;;
23800;SDS011;12081;48.614;10.226;2023-07-13T19:43:49;3.38;;;1.27;;
23800;SDS011;12081;48.614;10.226;2023-07-13T19:46:36;3.88;;;1.95;;
23800;SDS011;12081;48.614;10.226;2023-07-13T19:49:21;4.22;;;1.40;;
23800;SDS011;12081;48.614;10.226;2023-07-13T19:52:10;3.40;;;1.20;;
23800;SDS011;12081;48.614;10.226;2023-07-13T19:54:59;3.92;;;1.33;;
23800;SDS011;12081;48.614;10.226;2023-07-13T19:57:44;4.95;;;1.48;;
23800;SDS011;12081;48.614;10.226;2023-07-13T20:00:29;4.88;;;1.45;;
23800;SDS011;12081;48.614;10.226;2023-07-13T20:03:14;3.60;;;1.43;;
23800;SDS011;12081;48.614;10.226;2023-07-13T20:05:58;3.50;;;1.20;;
23800;SDS011;12081;48.614;10.226;2023-07-13T20:08:44;6.60;;;1.50;;
23800;SDS011;12081;48.614;10.226;2023-07-13T20:11:28;2.40;;;1.03;;
23800;SDS011;12081;48.614;10.226;2023-07-13T20:14:17;3.70;;;1.40;;
23800;SDS011;12081;48.614;10.226;2023-07-13T20:17:09;3.63;;;2.00;;
23800;SDS011;12081;48.614;10.226;2023-07-13T20:19:59;3.23;;;1.70;;
23800;SDS011;12081;48.614;10.226;2023-07-13T20:22:44;4.30;;;1.70;;
23800;SDS011;12081;48.614;10.226;2023-07-13T20:25:30;5.37;;;1.50;;
23800;SDS011;12081;48.614;10.226;2023-07-13T20:28:16;3.97;;;1.43;;
23800;SDS011;12081;48.614;10.226;2023-07-13T20:31:01;9.33;;;1.80;;
23800;SDS011;12081;48.614;10.226;2023-07-13T20:33:47;2.23;;;1.50;;
23800;SDS011;12081;48.614;10.226;2023-07-13T20:36:33;3.97;;;1.60;;
23800;SDS011;12081;48.614;10.226;2023-07-13T20:39:18;4.60;;;1.53;;
23800;SDS011;12081;48.614;10.226;2023-07-13T20:42:07;3.97;;;1.93;;
23800;SDS011;12081;48.614;10.226;2023-07-13T20:44:54;2.53;;;1.57;;
23800;SDS011;12081;48.614;10.226;2023-07-13T20:47:38;1.80;;;1.60;;
23800;SDS011;12081;48.614;10.226;2023-07-13T20:50:25;2.37;;;1.50;;
23800;SDS011;12081;48.614;10.226;2023-07-13T20:53:11;7.87;;;1.60;;
23800;SDS011;12081;48.614;10.226;2023-07-13T20:55:57;3.77;;;1.70;;
23800;SDS011;12081;48.614;10.226;2023-07-13T20:58:42;4.10;;;1.53;;
23800;SDS011;12081;48.614;10.226;2023-07-13T21:01:31;3.47;;;1.33;;
23800;SDS011;12081;48.614;10.226;2023-07-13T21:04:17;2.13;;;1.47;;
23800;SDS011;12081;48.614;10.226;2023-07-13T21:07:01;2.90;;;1.40;;
23800;SDS011;12081;48.614;10.226;2023-07-13T21:09:46;6.67;;;1.30;;
23800;SDS011;12081;48.614;10.226;2023-07-13T21:12:30;9.50;;;1.90;;
23800;SDS011;12081;48.614;10.226;2023-07-13T21:15:16;2.87;;;1.40;;
23800;SDS011;12081;48.614;10.226;2023-07-13T21:18:01;5.17;;;1.57;;
23800;SDS011;12081;48.614;10.226;2023-07-13T21:20:47;2.57;;;1.70;;
23800;SDS011;12081;48.614;10.226;2023-07-13T21:23:34;3.73;;;1.60;;
23800;SDS011;12081;48.614;10.226;2023-07-13T21:26:22;2.23;;;1.30;;
23800;SDS011;12081;48.614;10.226;2023-07-13T21:29:07;2.40;;;1.17;;
23800;SDS011;12081;48.614;10.226;2023-07-13T21:31:52;5.03;;;1.93;;
23800;SDS011;12081;48.614;10.226;2023-07-13T21:34:36;2.83;;;1.40;;
23800;SDS011;12081;48.614;10.226;2023-07-13T21:37:21;7.17;;;1.60;;
23800;SDS011;12081;48.614;10.226;2023-07-13T21:40:08;3.77;;;1.70;;
23800;SDS011;12081;48.614;10.226;2023-07-13T21:42:58;2.27;;;1.40;;
23800;SDS011;12081;48.614;10.226;2023-07-13T21:45:43;2.10;;;1.30;;
23800;SDS011;12081;48.614;10.226;2023-07-13T21:48:28;4.60;;;1.40;;
23800;SDS011;12081;48.614;10.226;2023-07-13T21:51:19;2.77;;;1.60;;
23800;SDS011;12081;48.614;10.226;2023-07-13T21:54:12;4.40;;;1.57;;
23800;SDS011;12081;48.614;10.226;2023-07-13T21:56:59;2.17;;;1.30;;
23800;SDS011;12081;48.614;10.226;2023-07-13T21:59:43;4.07;;;1.53;;
23800;SDS011;12081;48.614;10.226;2023-07-13T22:02:28;4.33;;;1.90;;
23800;SDS011;12081;48.614;10.226;2023-07-13T22:05:13;3.33;;;1.50;;
23800;SDS011;12081;48.614;10.226;2023-07-13T22:07:59;3.60;;;1.67;;
23800;SDS011;12081;48.614;10.226;2023-07-13T22:10:43;6.37;;;1.73;;
23800;SDS011;12081;48.614;10.226;2023-07-13T22:13:28;5.67;;;1.93;;
23800;SDS011;12081;48.614;10.226;2023-07-13T22:16:16;4.97;;;1.90;;
23800;SDS011;12081;48.614;10.226;2023-07-13T22:19:05;3.03;;;1.33;;
23800;SDS011;12081;48.614;10.226;2023-07-13T22:21:56;4.80;;;1.37;;
23800;SDS011;12081;48.614;10.226;2023-07-13T22:24:40;4.97;;;1.77;;
23800;SDS011;12081;48.614;10.226;2023-07-13T22:27:25;7.17;;;1.77;;